Charlestown, Indiana
Current Conditions -  °F | °C
As of 10:53 PM on Wednesday 26 Nov 2014 (Local Time) from KLOU Reporting Station
Scattered Clouds Scattered Clouds  
Wind Chill: 32°   Ceiling: Unl
Heat Index: 37°   Visibility: 10mi
Dew Point: 28°   Wind: 6mph
Humidity: 70%   Direction: 360°N
Pressure: 30.04"   Gusts: NA
Location:  38.44°N, 85.65°W
Report Text: KLOU 270353Z 36005KT 10SM SCT090 03/M02 A3004 RMK AO2 SLP176 T00281022
Loading
Personal Weather Stations






























Interactive Weather Map New forecast layout! Learn more

10-Day Weather Forecast

Advertisements
Track Severe Weather on mobile